createdAt,value
2018-03-27T00:00:00.569Z,25.40
2018-03-27T00:01:00.549Z,24.70
2018-03-27T00:02:00.528Z,24.60
2018-03-27T00:03:00.512Z,25.20
2018-03-27T00:04:00.481Z,25.90
2018-03-27T00:05:00.465Z,24.90
2018-03-27T00:06:00.438Z,24.80
2018-03-27T00:07:00.524Z,24.90
2018-03-27T00:08:00.395Z,25.40
2018-03-27T00:09:00.382Z,25.00
2018-03-27T00:10:00.354Z,25.60
2018-03-27T00:11:00.336Z,25.40
2018-03-27T00:12:00.309Z,25.90
2018-03-27T00:13:00.286Z,26.10
2018-03-27T00:14:00.264Z,26.40
2018-03-27T00:15:00.245Z,25.00
2018-03-27T00:16:00.224Z,25.50
2018-03-27T00:17:00.204Z,25.60
2018-03-27T00:18:00.178Z,26.50
2018-03-27T00:19:00.157Z,27.20
2018-03-27T00:20:00.135Z,26.50
2018-03-27T00:21:00.115Z,26.60
2018-03-27T00:22:00.092Z,26.80
2018-03-27T00:23:00.073Z,27.80
2018-03-27T00:24:00.054Z,25.80
2018-03-27T00:25:00.030Z,26.40
2018-03-27T00:26:00.015Z,25.50
2018-03-27T00:26:59.986Z,26.50
2018-03-27T00:27:59.963Z,26.90
2018-03-27T00:28:59.943Z,26.50
2018-03-27T00:29:59.929Z,26.30
2018-03-27T00:30:59.897Z,26.30
2018-03-27T00:31:59.877Z,28.10
2018-03-27T00:32:59.989Z,26.60
2018-03-27T00:33:59.839Z,27.40
2018-03-27T00:34:59.813Z,27.20
2018-03-27T00:35:59.888Z,27.50
2018-03-27T00:36:59.773Z,27.20
2018-03-27T00:37:59.759Z,27.50
2018-03-27T00:38:59.790Z,26.20
2018-03-27T00:39:59.706Z,26.20
2018-03-27T00:40:59.688Z,27.60
2018-03-27T00:41:59.660Z,28.10
2018-03-27T00:42:59.641Z,28.30
2018-03-27T00:43:59.625Z,27.80
2018-03-27T00:44:59.602Z,27.90
2018-03-27T00:45:59.578Z,29.50
2018-03-27T00:46:59.555Z,28.90
2018-03-27T00:47:59.533Z,29.80
2018-03-27T00:48:59.516Z,29.40
2018-03-27T00:49:59.493Z,30.00
2018-03-27T00:50:59.469Z,28.60
2018-03-27T00:51:59.449Z,28.70
2018-03-27T00:52:59.429Z,27.60
2018-03-27T00:53:59.406Z,29.30
2018-03-27T00:54:59.382Z,29.70
2018-03-27T00:55:59.361Z,29.70
2018-03-27T00:56:59.338Z,30.20
2018-03-27T00:57:59.319Z,30.80
2018-03-27T00:58:59.298Z,29.50
2018-03-27T00:59:59.278Z,29.10
2018-03-27T01:00:59.253Z,28.60
2018-03-27T01:01:59.234Z,30.30
2018-03-27T01:02:59.210Z,29.50
2018-03-27T01:03:59.198Z,28.90
2018-03-27T01:04:59.172Z,29.50
2018-03-27T01:05:59.158Z,29.90
2018-03-27T01:06:59.128Z,28.60
2018-03-27T01:07:59.117Z,29.40
2018-03-27T01:08:59.104Z,29.70
2018-03-27T01:09:59.065Z,30.10
2018-03-27T01:10:59.041Z,29.20
2018-03-27T01:11:59.020Z,29.90
2018-03-27T01:12:59.004Z,28.80
2018-03-27T01:13:58.980Z,29.60
2018-03-27T01:14:58.958Z,29.10
2018-03-27T01:15:58.937Z,30.60
2018-03-27T01:16:58.918Z,29.70
2018-03-27T01:17:58.892Z,30.30
2018-03-27T01:18:58.868Z,30.60
2018-03-27T01:19:58.849Z,29.10
2018-03-27T01:20:58.827Z,30.40
2018-03-27T01:21:58.808Z,30.00
2018-03-27T01:22:58.794Z,29.80
2018-03-27T01:23:58.768Z,30.00
2018-03-27T01:24:58.924Z,30.50
2018-03-27T01:25:58.718Z,29.20
2018-03-27T01:26:58.698Z,29.30
2018-03-27T01:27:58.770Z,29.90
2018-03-27T01:28:58.657Z,29.00
2018-03-27T01:29:58.637Z,28.30
2018-03-27T01:30:58.624Z,28.50
2018-03-27T01:31:58.595Z,27.00
2018-03-27T01:32:58.569Z,29.10
2018-03-27T01:33:58.549Z,30.80
2018-03-27T01:34:58.534Z,30.20
2018-03-27T01:35:58.514Z,30.20
2018-03-27T01:36:58.486Z,28.90
2018-03-27T01:37:58.464Z,29.40
2018-03-27T01:38:58.443Z,29.90
2018-03-27T01:39:58.423Z,29.80
2018-03-27T01:40:58.400Z,29.80
2018-03-27T01:41:58.378Z,29.80
2018-03-27T01:42:58.356Z,29.80
2018-03-27T01:43:58.341Z,31.10
2018-03-27T01:44:58.316Z,31.50
2018-03-27T01:45:58.296Z,30.00
2018-03-27T01:46:58.284Z,29.70
2018-03-27T01:47:58.258Z,29.50
2018-03-27T01:48:58.230Z,30.80
2018-03-27T01:49:58.211Z,30.50
2018-03-27T01:50:58.188Z,30.70
2018-03-27T01:51:58.169Z,30.10
2018-03-27T01:52:58.144Z,31.30
2018-03-27T01:53:58.123Z,31.30
2018-03-27T01:54:58.116Z,32.60
2018-03-27T01:55:58.084Z,30.90
2018-03-27T01:56:58.061Z,33.10
2018-03-27T01:57:58.145Z,32.00
2018-03-27T01:58:58.019Z,32.20
2018-03-27T01:59:58.001Z,31.90
2018-03-27T02:00:57.980Z,32.00
2018-03-27T02:01:57.954Z,33.50
2018-03-27T02:02:57.932Z,33.10
2018-03-27T02:03:57.914Z,32.50
2018-03-27T02:04:57.945Z,32.00
2018-03-27T02:05:57.870Z,31.80
2018-03-27T02:06:57.852Z,33.70
2018-03-27T02:07:57.875Z,34.20
2018-03-27T02:08:57.810Z,32.90
2018-03-27T02:09:57.792Z,33.00
2018-03-27T02:10:57.763Z,33.40
2018-03-27T02:11:57.746Z,33.30
2018-03-27T02:12:57.725Z,32.20
2018-03-27T02:13:57.868Z,33.80
2018-03-27T02:14:57.685Z,33.40
2018-03-27T02:15:57.718Z,34.30
2018-03-27T02:16:57.655Z,32.70
2018-03-27T02:17:57.621Z,31.40
2018-03-27T02:18:57.601Z,32.50
2018-03-27T02:19:57.584Z,32.80
2018-03-27T02:20:57.562Z,33.90
2018-03-27T02:21:57.536Z,33.40
2018-03-27T02:22:57.512Z,33.70
2018-03-27T02:23:57.494Z,33.60
2018-03-27T02:24:57.475Z,32.30
2018-03-27T02:25:57.516Z,32.90
2018-03-27T02:26:57.429Z,32.90
2018-03-27T02:27:57.411Z,32.00
2018-03-27T02:28:57.388Z,31.40
2018-03-27T02:29:57.367Z,31.30
2018-03-27T02:30:57.350Z,33.10
2018-03-27T02:31:57.328Z,32.70
2018-03-27T02:32:57.336Z,34.40
2018-03-27T02:33:57.284Z,34.20
2018-03-27T02:34:57.270Z,34.60
2018-03-27T02:35:57.258Z,34.10
2018-03-27T02:36:57.226Z,34.30
2018-03-27T02:37:57.201Z,33.20
2018-03-27T02:38:57.180Z,34.20
2018-03-27T02:39:57.166Z,33.40
2018-03-27T02:40:57.137Z,34.10
2018-03-27T02:41:57.136Z,34.00
2018-03-27T02:42:57.095Z,35.20
2018-03-27T02:43:57.078Z,34.40
2018-03-27T02:44:57.057Z,33.40
2018-03-27T02:45:57.029Z,34.80
2018-03-27T02:46:57.011Z,35.00
2018-03-27T02:47:56.997Z,35.40
2018-03-27T02:48:56.976Z,35.50
2018-03-27T02:49:56.946Z,36.20
2018-03-27T02:50:56.926Z,36.00
2018-03-27T02:51:56.906Z,36.00
2018-03-27T02:52:56.885Z,35.30
2018-03-27T02:53:56.865Z,35.00
2018-03-27T02:54:56.841Z,35.60
2018-03-27T02:55:56.819Z,36.20
2018-03-27T02:56:56.806Z,35.40
2018-03-27T02:57:56.778Z,35.90
2018-03-27T02:58:56.757Z,37.30
2018-03-27T02:59:56.736Z,36.50
2018-03-27T03:00:56.717Z,36.00
2018-03-27T03:01:56.697Z,35.70
2018-03-27T03:02:56.673Z,35.70
2018-03-27T03:03:56.653Z,35.70
2018-03-27T03:04:56.643Z,34.60
2018-03-27T03:05:56.642Z,35.50
2018-03-27T03:06:56.590Z,37.20
2018-03-27T03:07:56.566Z,37.20
2018-03-27T03:08:56.547Z,36.20
2018-03-27T03:09:56.525Z,37.80
2018-03-27T03:10:56.503Z,37.90
2018-03-27T03:11:56.489Z,40.10
2018-03-27T03:12:56.569Z,38.40
2018-03-27T03:13:56.438Z,37.80
2018-03-27T03:14:56.423Z,37.30
2018-03-27T03:15:56.398Z,37.80
2018-03-27T03:16:56.382Z,37.00
2018-03-27T03:17:56.351Z,38.30
2018-03-27T03:18:56.333Z,39.30
2018-03-27T03:19:56.313Z,36.50
2018-03-27T03:20:56.288Z,37.80
2018-03-27T03:21:56.267Z,38.70
2018-03-27T03:22:56.243Z,38.20
2018-03-27T03:23:56.224Z,36.80
2018-03-27T03:24:56.202Z,38.30
2018-03-27T03:25:56.180Z,36.80
2018-03-27T03:26:56.156Z,37.10
2018-03-27T03:27:56.136Z,37.50
2018-03-27T03:28:56.117Z,38.50
2018-03-27T03:29:56.092Z,37.10
2018-03-27T03:30:56.082Z,37.80
2018-03-27T03:31:56.070Z,37.10
2018-03-27T03:33:56.005Z,35.60
2018-03-27T03:34:55.997Z,36.40
2018-03-27T03:35:55.965Z,38.40
2018-03-27T03:36:55.949Z,36.20
2018-03-27T03:37:55.925Z,36.30
2018-03-27T03:38:55.899Z,34.10
2018-03-27T03:39:55.887Z,36.70
2018-03-27T03:40:55.853Z,36.00
2018-03-27T03:41:55.831Z,37.50
2018-03-27T03:42:55.819Z,36.60
2018-03-27T03:43:55.789Z,37.10
2018-03-27T03:44:55.770Z,36.70
2018-03-27T03:45:55.745Z,36.00
2018-03-27T03:46:55.722Z,36.40
2018-03-27T03:47:55.702Z,36.40
2018-03-27T03:48:55.682Z,37.10
2018-03-27T03:49:55.658Z,37.00
2018-03-27T03:50:55.669Z,36.60
2018-03-27T03:51:55.612Z,36.00
2018-03-27T03:52:55.593Z,36.60
2018-03-27T03:53:55.668Z,34.30
2018-03-27T03:54:55.546Z,36.70
2018-03-27T03:55:55.526Z,36.40
2018-03-27T03:56:55.506Z,37.60
2018-03-27T03:57:55.481Z,38.40
2018-03-27T03:58:55.461Z,37.40
2018-03-27T03:59:55.436Z,37.10
2018-03-27T04:00:55.419Z,37.70
2018-03-27T04:01:55.396Z,36.40
2018-03-27T04:02:55.378Z,35.80
2018-03-27T04:03:55.351Z,36.20
2018-03-27T04:04:55.333Z,36.20
2018-03-27T04:05:55.306Z,36.80
2018-03-27T04:06:55.291Z,35.70
2018-03-27T04:07:55.267Z,36.20
2018-03-27T04:08:55.243Z,36.20
2018-03-27T04:09:55.218Z,35.90
2018-03-27T04:10:55.196Z,36.60
2018-03-27T04:11:55.176Z,36.70
2018-03-27T04:12:55.157Z,36.00
2018-03-27T04:13:55.128Z,34.90
2018-03-27T04:14:55.108Z,38.00
2018-03-27T04:15:55.088Z,36.80
2018-03-27T04:16:55.068Z,37.30
2018-03-27T04:17:55.053Z,37.20
2018-03-27T04:18:55.022Z,35.70
2018-03-27T04:19:55.023Z,36.00
2018-03-27T04:20:54.975Z,38.70
2018-03-27T04:21:54.955Z,36.80
2018-03-27T04:22:54.942Z,35.90
2018-03-27T04:23:54.926Z,33.40
2018-03-27T04:24:54.885Z,34.20
2018-03-27T04:25:54.864Z,36.20
2018-03-27T04:26:54.899Z,34.70
2018-03-27T04:27:54.823Z,35.70
2018-03-27T04:28:54.797Z,36.10
2018-03-27T04:29:54.780Z,35.60
2018-03-27T04:30:54.752Z,35.50
2018-03-27T04:31:54.733Z,36.10
2018-03-27T04:32:54.713Z,37.40
2018-03-27T04:33:54.687Z,36.10
2018-03-27T04:34:54.664Z,35.70
2018-03-27T04:35:54.643Z,36.00
2018-03-27T04:36:54.635Z,36.50
2018-03-27T04:37:54.603Z,34.40
2018-03-27T04:38:54.576Z,36.80
2018-03-27T04:39:54.555Z,37.10
2018-03-27T04:40:54.541Z,36.70
2018-03-27T04:41:54.515Z,38.20
2018-03-27T04:42:54.497Z,37.40
2018-03-27T04:43:54.466Z,35.70
2018-03-27T04:44:54.450Z,35.40
2018-03-27T04:45:54.525Z,36.00
2018-03-27T04:46:54.401Z,36.70
2018-03-27T04:47:54.375Z,36.30
2018-03-27T04:48:54.420Z,38.30
2018-03-27T04:49:54.329Z,37.00
2018-03-27T04:50:54.328Z,37.20
2018-03-27T04:51:54.291Z,35.70
2018-03-27T04:52:54.265Z,37.70
2018-03-27T04:53:54.240Z,37.70
2018-03-27T04:54:54.221Z,37.10
2018-03-27T04:55:54.213Z,38.00
2018-03-27T04:56:54.276Z,38.60
2018-03-27T04:57:54.153Z,38.70
2018-03-27T04:58:54.128Z,38.40
2018-03-27T04:59:54.112Z,38.10
2018-03-27T05:00:54.089Z,39.00
2018-03-27T05:01:54.060Z,37.50
2018-03-27T05:02:54.039Z,38.70
2018-03-27T05:03:54.020Z,37.40
2018-03-27T05:04:53.995Z,37.70
2018-03-27T05:05:54.199Z,37.10
2018-03-27T05:06:53.950Z,38.60
2018-03-27T05:07:53.929Z,38.00
2018-03-27T05:08:53.909Z,37.10
2018-03-27T05:09:53.879Z,39.10
2018-03-27T05:10:53.868Z,37.40
2018-03-27T05:11:53.839Z,38.70
2018-03-27T05:12:53.902Z,38.30
2018-03-27T05:13:53.802Z,38.10
2018-03-27T05:14:53.768Z,38.70
2018-03-27T05:15:53.756Z,40.90
2018-03-27T05:16:53.733Z,40.80
2018-03-27T05:17:53.703Z,39.40
2018-03-27T05:18:53.681Z,40.10
2018-03-27T05:19:53.666Z,39.00
2018-03-27T05:20:53.656Z,37.50
2018-03-27T05:21:53.615Z,36.10
2018-03-27T05:22:53.589Z,36.90
2018-03-27T05:23:53.566Z,37.40
2018-03-27T05:24:53.546Z,36.50
2018-03-27T05:25:53.524Z,38.70
2018-03-27T05:26:53.502Z,38.40
2018-03-27T05:27:53.485Z,38.10
2018-03-27T05:28:53.474Z,38.10
2018-03-27T05:29:53.434Z,38.00
2018-03-27T05:30:53.411Z,37.50
2018-03-27T05:31:53.397Z,37.40
2018-03-27T05:32:53.415Z,37.70
2018-03-27T05:33:53.347Z,37.70
2018-03-27T05:34:53.327Z,37.90
2018-03-27T05:35:53.297Z,37.60
2018-03-27T05:36:53.275Z,36.50
2018-03-27T05:37:53.257Z,35.50
2018-03-27T05:38:53.238Z,37.30
2018-03-27T05:39:53.206Z,37.20
2018-03-27T05:40:53.191Z,36.90
2018-03-27T05:41:53.166Z,36.30
2018-03-27T05:42:53.145Z,37.70
2018-03-27T05:43:53.118Z,37.80
2018-03-27T05:44:53.096Z,38.20
2018-03-27T05:45:53.078Z,37.20
2018-03-27T05:46:53.054Z,36.50
2018-03-27T05:47:53.030Z,38.30
2018-03-27T05:48:53.004Z,37.80
2018-03-27T05:49:52.984Z,37.90
2018-03-27T05:50:52.984Z,37.90
2018-03-27T05:51:52.938Z,40.00
2018-03-27T05:52:52.925Z,40.10
2018-03-27T05:53:52.896Z,39.10
2018-03-27T05:54:52.873Z,39.50
2018-03-27T05:55:52.890Z,40.40
2018-03-27T05:56:52.848Z,42.20
2018-03-27T05:57:52.818Z,39.80
2018-03-27T05:58:52.807Z,38.90
2018-03-27T05:59:52.760Z,40.80
2018-03-27T06:00:52.736Z,37.60
2018-03-27T06:01:52.723Z,39.70
2018-03-27T06:02:52.699Z,38.30
2018-03-27T06:03:52.669Z,37.10
2018-03-27T06:04:52.655Z,37.10
2018-03-27T06:05:52.623Z,36.10
2018-03-27T06:06:52.606Z,36.00
2018-03-27T06:07:52.576Z,35.50
2018-03-27T06:08:52.555Z,37.50
2018-03-27T06:09:52.532Z,38.10
2018-03-27T06:10:52.512Z,38.50
2018-03-27T06:11:52.488Z,37.70
2018-03-27T06:12:52.465Z,35.90
2018-03-27T06:13:52.441Z,36.70
2018-03-27T06:14:52.431Z,35.80
2018-03-27T06:15:52.399Z,37.10
2018-03-27T06:16:52.379Z,35.80
2018-03-27T06:17:52.354Z,35.30
2018-03-27T06:18:52.341Z,36.80
2018-03-27T06:19:52.309Z,36.30
2018-03-27T06:20:52.295Z,37.00
2018-03-27T06:21:52.266Z,36.50
2018-03-27T06:22:52.244Z,35.90
2018-03-27T06:23:52.256Z,36.10
2018-03-27T06:24:52.194Z,36.90
2018-03-27T06:25:52.177Z,36.20
2018-03-27T06:26:52.163Z,36.70
2018-03-27T06:27:52.129Z,36.40
2018-03-27T06:28:52.108Z,37.70
2018-03-27T06:29:52.086Z,36.10
2018-03-27T06:30:52.066Z,37.90
2018-03-27T06:31:52.038Z,36.40
2018-03-27T06:32:52.019Z,36.90
2018-03-27T06:33:52.017Z,37.20
2018-03-27T06:34:51.972Z,35.90
2018-03-27T06:35:51.951Z,36.90
2018-03-27T06:36:51.948Z,37.60
2018-03-27T06:37:51.908Z,38.60
2018-03-27T06:38:51.887Z,39.30
2018-03-27T06:39:51.866Z,36.70
2018-03-27T06:40:51.840Z,36.30
2018-03-27T06:41:51.821Z,36.30
2018-03-27T06:42:51.807Z,36.60
2018-03-27T06:43:51.773Z,37.70
2018-03-27T06:44:51.751Z,37.90
2018-03-27T06:45:51.726Z,39.60
2018-03-27T06:46:51.712Z,39.00
2018-03-27T06:47:51.745Z,38.10
2018-03-27T06:48:51.733Z,37.50
2018-03-27T06:49:51.637Z,39.30
2018-03-27T06:50:51.620Z,37.60
2018-03-27T06:51:51.595Z,39.80
2018-03-27T06:52:51.616Z,39.10
2018-03-27T06:53:51.550Z,39.60
2018-03-27T06:54:51.527Z,37.30
2018-03-27T06:55:51.506Z,38.40
2018-03-27T06:56:51.495Z,36.80
2018-03-27T06:57:51.459Z,40.20
2018-03-27T06:58:51.491Z,40.50
2018-03-27T06:59:51.504Z,39.10
2018-03-27T07:00:51.394Z,38.30
2018-03-27T07:01:51.371Z,36.90
2018-03-27T07:02:51.356Z,39.40
2018-03-27T07:03:51.357Z,38.90
2018-03-27T07:04:51.303Z,38.10
2018-03-27T07:05:51.333Z,39.00
2018-03-27T07:06:51.259Z,39.40
2018-03-27T07:07:51.237Z,39.50
2018-03-27T07:08:51.215Z,37.20
2018-03-27T07:09:51.228Z,37.70
2018-03-27T07:10:51.169Z,38.40
2018-03-27T07:11:51.149Z,37.70
2018-03-27T07:12:51.171Z,38.90
2018-03-27T07:13:51.129Z,38.70
2018-03-27T07:14:51.085Z,38.20
2018-03-27T07:15:51.065Z,39.00
2018-03-27T07:16:51.049Z,39.80
2018-03-27T07:17:51.015Z,38.30
2018-03-27T07:18:51.021Z,38.80
2018-03-27T07:19:50.977Z,38.00
2018-03-27T07:20:50.985Z,37.80
2018-03-27T07:21:50.965Z,37.80
2018-03-27T07:22:50.907Z,39.30
2018-03-27T07:23:50.887Z,38.90
2018-03-27T07:24:50.896Z,40.70
2018-03-27T07:25:50.844Z,39.00
2018-03-27T07:26:50.821Z,40.30
2018-03-27T07:27:50.802Z,41.40
2018-03-27T07:28:50.782Z,42.20
2018-03-27T07:29:50.766Z,43.00
2018-03-27T07:30:50.736Z,42.60
2018-03-27T07:31:50.716Z,43.70
2018-03-27T07:32:50.697Z,43.10
2018-03-27T07:33:50.679Z,41.90
2018-03-27T07:34:50.661Z,41.30
2018-03-27T07:35:50.633Z,42.90
2018-03-27T07:36:50.620Z,42.30
2018-03-27T07:37:50.593Z,41.70
2018-03-27T07:38:50.575Z,39.90
2018-03-27T07:39:50.558Z,39.70
2018-03-27T07:40:50.534Z,40.90
2018-03-27T07:41:50.510Z,40.00
2018-03-27T07:42:50.503Z,42.00
2018-03-27T07:43:50.478Z,41.70
2018-03-27T07:44:50.456Z,41.10
2018-03-27T07:45:50.432Z,39.90
2018-03-27T07:46:50.421Z,42.90
2018-03-27T07:47:50.391Z,45.60
2018-03-27T07:48:50.379Z,47.10
2018-03-27T07:49:50.356Z,44.70
2018-03-27T07:50:50.334Z,44.80
2018-03-27T07:51:50.402Z,44.40
2018-03-27T07:52:50.292Z,43.30
2018-03-27T07:53:50.272Z,42.70
2018-03-27T07:54:50.248Z,40.70
2018-03-27T07:55:50.242Z,40.90
2018-03-27T07:56:50.211Z,42.20
2018-03-27T07:57:50.201Z,44.30
2018-03-27T07:58:50.180Z,48.00
2018-03-27T07:59:50.157Z,49.90
2018-03-27T08:00:50.137Z,49.60
2018-03-27T08:01:50.120Z,48.40
2018-03-27T08:02:50.102Z,43.30
2018-03-27T08:03:50.151Z,43.90
2018-03-27T08:04:50.062Z,41.80
2018-03-27T08:05:50.042Z,41.70
2018-03-27T08:06:50.023Z,42.00
2018-03-27T08:07:50.003Z,42.00
2018-03-27T08:08:49.989Z,43.00
2018-03-27T08:09:49.976Z,40.90
2018-03-27T08:10:49.952Z,41.90
2018-03-27T08:11:49.932Z,41.10
2018-03-27T08:12:49.909Z,40.40
2018-03-27T08:13:49.893Z,42.40
2018-03-27T08:14:49.878Z,41.20
2018-03-27T08:15:49.863Z,42.20
2018-03-27T08:16:49.842Z,41.40
2018-03-27T08:17:49.826Z,41.10
2018-03-27T08:18:49.800Z,41.80
2018-03-27T08:19:49.784Z,41.60
2018-03-27T08:20:49.769Z,41.20
2018-03-27T08:21:49.766Z,40.60
2018-03-27T08:22:49.732Z,38.80
2018-03-27T08:23:49.718Z,39.10
2018-03-27T08:24:49.706Z,40.60
2018-03-27T08:25:49.680Z,42.50
2018-03-27T08:26:49.675Z,42.60
2018-03-27T08:27:49.780Z,41.20
2018-03-27T08:28:49.637Z,42.50
2018-03-27T08:29:49.615Z,42.30
2018-03-27T08:30:49.605Z,43.30
2018-03-27T08:31:49.577Z,43.20
2018-03-27T08:32:49.565Z,43.50
2018-03-27T08:33:49.551Z,42.70
2018-03-27T08:34:49.537Z,42.70
2018-03-27T08:35:49.516Z,42.80
2018-03-27T08:36:49.505Z,44.10
2018-03-27T08:37:49.480Z,43.90
2018-03-27T08:38:49.454Z,43.20
2018-03-27T08:39:49.439Z,41.80
2018-03-27T08:40:49.422Z,43.00
2018-03-27T08:41:49.410Z,43.30
2018-03-27T08:42:49.398Z,44.00
2018-03-27T08:43:49.367Z,44.20
2018-03-27T08:44:49.363Z,43.10
2018-03-27T08:45:49.329Z,42.40
2018-03-27T08:46:49.332Z,40.90
2018-03-27T08:47:49.314Z,43.60
2018-03-27T08:48:49.278Z,43.00
2018-03-27T08:49:49.376Z,42.40
2018-03-27T08:50:49.242Z,42.90
2018-03-27T08:51:49.234Z,44.90
2018-03-27T08:52:49.206Z,44.60
2018-03-27T08:53:49.185Z,44.60
2018-03-27T08:54:49.184Z,45.20
2018-03-27T08:55:49.166Z,43.50
2018-03-27T08:56:49.151Z,44.90
2018-03-27T08:57:49.119Z,41.60
2018-03-27T08:58:49.107Z,44.40
2018-03-27T08:59:49.095Z,43.30
2018-03-27T09:00:49.065Z,45.10
2018-03-27T09:01:49.043Z,43.80
2018-03-27T09:02:49.032Z,43.80
2018-03-27T09:03:49.009Z,43.50
2018-03-27T09:04:48.992Z,39.50
2018-03-27T09:05:48.984Z,44.40
2018-03-27T09:06:48.963Z,42.30
2018-03-27T09:07:48.948Z,44.20
2018-03-27T09:08:48.931Z,38.60
2018-03-27T09:09:49.042Z,40.40
2018-03-27T09:10:48.907Z,41.40
2018-03-27T09:11:48.886Z,43.00
2018-03-27T09:12:48.881Z,41.50
2018-03-27T09:13:48.850Z,41.10
2018-03-27T09:14:48.843Z,42.10
2018-03-27T09:15:48.822Z,44.70
2018-03-27T09:16:48.813Z,45.90
2018-03-27T09:17:48.784Z,44.50
2018-03-27T09:18:48.783Z,42.50
2018-03-27T09:19:48.759Z,42.60
2018-03-27T09:20:48.743Z,44.40
2018-03-27T09:21:48.732Z,44.70
2018-03-27T09:22:48.717Z,42.10
2018-03-27T09:23:48.698Z,41.30
2018-03-27T09:24:48.699Z,44.40
2018-03-27T09:25:48.741Z,44.60
2018-03-27T09:26:48.665Z,45.60
2018-03-27T09:27:48.657Z,44.10
2018-03-27T09:28:48.648Z,39.90
2018-03-27T09:29:48.628Z,40.00
2018-03-27T09:30:48.613Z,42.20
2018-03-27T09:31:48.601Z,36.00
2018-03-27T09:32:48.587Z,39.00
2018-03-27T09:33:48.583Z,38.30
2018-03-27T09:34:48.574Z,41.00
2018-03-27T09:35:48.553Z,42.10
2018-03-27T09:36:48.561Z,44.20
2018-03-27T09:37:48.543Z,46.50
2018-03-27T09:38:48.520Z,41.10
2018-03-27T09:39:48.508Z,44.70
2018-03-27T09:40:48.502Z,45.10
2018-03-27T09:41:48.500Z,48.10
2018-03-27T09:42:48.482Z,53.20
2018-03-27T09:43:48.468Z,54.60
2018-03-27T09:44:48.455Z,57.30
2018-03-27T09:45:48.451Z,55.90
2018-03-27T09:46:48.534Z,59.70
2018-03-27T09:47:48.432Z,59.50
2018-03-27T09:48:48.432Z,60.60
2018-03-27T09:49:48.407Z,62.00
2018-03-27T09:50:48.401Z,63.80
2018-03-27T09:51:48.391Z,64.80
2018-03-27T09:52:48.379Z,66.70
2018-03-27T09:53:48.383Z,67.70
2018-03-27T09:54:48.378Z,65.70
2018-03-27T09:55:48.355Z,67.40
2018-03-27T09:56:48.355Z,65.00
2018-03-27T09:57:48.335Z,64.70
2018-03-27T09:58:48.325Z,65.60
2018-03-27T09:59:48.418Z,70.70
2018-03-27T10:00:48.313Z,68.80
2018-03-27T10:01:48.315Z,64.60
2018-03-27T10:02:48.339Z,65.10
2018-03-27T10:03:48.290Z,65.70
2018-03-27T10:04:48.271Z,68.90
2018-03-27T10:05:48.262Z,64.70
2018-03-27T10:06:48.259Z,61.50
2018-03-27T10:07:48.245Z,68.90
2018-03-27T10:08:48.260Z,69.10
2018-03-27T10:09:48.238Z,62.70
2018-03-27T10:10:48.225Z,65.50
2018-03-27T10:11:48.221Z,67.60
2018-03-27T10:12:48.214Z,65.70
2018-03-27T10:13:48.204Z,67.90
2018-03-27T10:14:48.193Z,67.10
2018-03-27T10:15:48.214Z,64.10
2018-03-27T10:16:48.180Z,62.10
2018-03-27T10:17:48.159Z,63.10
2018-03-27T10:18:48.158Z,61.30
2018-03-27T10:19:48.145Z,38.00
2018-03-27T10:20:48.148Z,55.50
2018-03-27T10:21:48.141Z,66.00
2018-03-27T10:22:48.279Z,63.50
2018-03-27T10:23:48.127Z,63.20
2018-03-27T10:24:48.112Z,68.00
2018-03-27T10:25:48.107Z,56.50
2018-03-27T10:26:48.084Z,54.80
2018-03-27T10:27:48.081Z,49.60
2018-03-27T10:28:48.074Z,60.70
2018-03-27T10:29:48.067Z,61.80
2018-03-27T10:30:48.056Z,59.70
2018-03-27T10:31:48.064Z,58.30
2018-03-27T10:32:48.055Z,59.20
2018-03-27T10:33:48.041Z,60.30
2018-03-27T10:34:48.025Z,60.00
2018-03-27T10:35:48.018Z,51.20
2018-03-27T10:36:48.013Z,49.60
2018-03-27T10:37:48.004Z,54.60
2018-03-27T10:38:47.992Z,49.80
2018-03-27T10:39:47.988Z,52.10
2018-03-27T10:40:47.976Z,49.90
2018-03-27T10:41:47.971Z,50.00
2018-03-27T10:42:47.962Z,51.90
2018-03-27T10:43:47.953Z,53.20
2018-03-27T10:44:47.944Z,51.20
2018-03-27T10:45:47.934Z,49.60
2018-03-27T10:46:47.933Z,50.40
2018-03-27T10:47:47.919Z,49.00
2018-03-27T10:48:47.914Z,49.10
2018-03-27T10:49:47.916Z,47.00
2018-03-27T10:50:47.901Z,44.60
2018-03-27T10:51:47.895Z,46.30
2018-03-27T10:52:47.977Z,44.70
2018-03-27T10:53:47.877Z,45.00
2018-03-27T10:54:47.867Z,42.20
2018-03-27T10:55:47.859Z,44.70
2018-03-27T10:56:47.854Z,42.40
2018-03-27T10:57:47.848Z,42.20
2018-03-27T10:58:47.838Z,45.30
2018-03-27T10:59:47.844Z,45.70
2018-03-27T11:00:47.824Z,39.80
2018-03-27T11:01:47.816Z,34.90
2018-03-27T11:02:47.819Z,31.70
2018-03-27T11:03:47.871Z,24.00
2018-03-27T11:04:47.799Z,24.50
2018-03-27T11:05:47.869Z,21.90
2018-03-27T11:06:47.787Z,18.40
2018-03-27T11:07:47.760Z,17.70
2018-03-27T11:08:47.812Z,19.70
2018-03-27T11:09:47.737Z,22.10
2018-03-27T11:10:47.728Z,21.80
2018-03-27T11:11:47.724Z,20.20
2018-03-27T11:12:47.706Z,19.30
2018-03-27T11:13:47.705Z,18.70
2018-03-27T11:14:47.685Z,19.60
2018-03-27T11:15:47.674Z,18.70
2018-03-27T11:16:47.676Z,18.70
2018-03-27T11:17:47.646Z,18.10
2018-03-27T11:18:47.639Z,16.80
2018-03-27T11:19:47.619Z,17.70
2018-03-27T11:20:47.616Z,17.60
2018-03-27T11:21:47.597Z,15.30
2018-03-27T11:22:47.590Z,16.50
2018-03-27T11:23:47.596Z,15.30
2018-03-27T11:24:47.579Z,17.00
2018-03-27T11:25:47.545Z,18.50
2018-03-27T11:26:47.543Z,17.40
2018-03-27T11:27:47.531Z,17.60
2018-03-27T11:28:47.508Z,17.20
2018-03-27T11:29:47.502Z,18.20
2018-03-27T11:30:47.489Z,16.60
2018-03-27T11:31:47.476Z,18.00
2018-03-27T11:32:47.475Z,18.10
2018-03-27T11:33:47.463Z,15.90
2018-03-27T11:34:47.435Z,17.10
2018-03-27T11:35:47.422Z,19.60
2018-03-27T11:36:47.407Z,19.50
2018-03-27T11:37:47.407Z,19.60
2018-03-27T11:38:47.385Z,18.50
2018-03-27T11:39:47.365Z,17.60
2018-03-27T11:40:47.355Z,18.70
2018-03-27T11:41:47.342Z,18.00
2018-03-27T11:42:47.328Z,17.40
2018-03-27T11:43:47.314Z,17.00
2018-03-27T11:44:47.310Z,17.60
2018-03-27T11:45:47.391Z,18.40
2018-03-27T11:46:47.281Z,16.60
2018-03-27T11:47:47.263Z,17.10
2018-03-27T11:48:47.296Z,14.90
2018-03-27T11:49:47.234Z,16.20
2018-03-27T11:50:47.223Z,15.60
2018-03-27T11:51:47.211Z,16.60
2018-03-27T11:52:47.196Z,16.50
2018-03-27T11:53:47.187Z,16.20
2018-03-27T11:54:47.187Z,16.40
2018-03-27T11:55:47.157Z,15.70
2018-03-27T11:56:47.153Z,16.30
2018-03-27T11:57:47.149Z,16.60
2018-03-27T11:58:47.129Z,15.80
2018-03-27T11:59:47.111Z,17.10
2018-03-27T12:00:47.096Z,15.50
2018-03-27T12:01:47.085Z,17.30
2018-03-27T12:02:47.069Z,15.70
2018-03-27T12:03:47.060Z,17.90
2018-03-27T12:04:47.114Z,16.10
2018-03-27T12:05:47.041Z,13.40
2018-03-27T12:06:47.048Z,14.10
2018-03-27T12:07:47.021Z,14.40
2018-03-27T12:08:47.065Z,14.20
2018-03-27T12:09:46.982Z,15.00
2018-03-27T12:10:46.981Z,16.60
2018-03-27T12:11:46.960Z,15.00
2018-03-27T12:12:46.949Z,15.40
2018-03-27T12:13:46.928Z,18.00
2018-03-27T12:14:46.922Z,14.80
2018-03-27T12:15:46.903Z,14.50
2018-03-27T12:16:46.896Z,15.00
2018-03-27T12:17:46.880Z,14.80
2018-03-27T12:18:46.864Z,14.00
2018-03-27T12:19:46.854Z,14.10
2018-03-27T12:20:46.865Z,14.30
2018-03-27T12:21:46.833Z,14.30
2018-03-27T12:22:46.811Z,14.60
2018-03-27T12:23:46.797Z,13.60
2018-03-27T12:24:46.820Z,13.10
2018-03-27T12:25:46.934Z,13.00
2018-03-27T12:26:46.758Z,13.30
2018-03-27T12:27:46.755Z,12.90
2018-03-27T12:28:46.832Z,13.50
2018-03-27T12:29:46.718Z,14.00
2018-03-27T12:30:46.696Z,13.80
2018-03-27T12:31:46.739Z,13.00
2018-03-27T12:32:46.670Z,13.00
2018-03-27T12:33:46.658Z,12.70
2018-03-27T12:34:46.650Z,13.10
2018-03-27T12:35:46.629Z,13.70
2018-03-27T12:36:46.622Z,13.00
2018-03-27T12:37:46.599Z,12.50
2018-03-27T12:38:46.587Z,12.20
2018-03-27T12:39:46.572Z,13.40
2018-03-27T12:40:46.555Z,12.90
2018-03-27T12:41:46.543Z,12.40
2018-03-27T12:42:46.549Z,12.70
2018-03-27T12:43:46.514Z,12.80
2018-03-27T12:44:46.521Z,12.80
2018-03-27T12:45:46.487Z,12.90
2018-03-27T12:46:46.483Z,12.00
2018-03-27T12:47:46.524Z,13.40
2018-03-27T12:48:46.444Z,12.10
2018-03-27T12:49:46.472Z,11.70
2018-03-27T12:50:46.402Z,11.20
2018-03-27T12:51:46.389Z,11.60
2018-03-27T12:52:46.388Z,10.80